Time;durP1;ratioP1;P1;durP2;ratioP2;P2;SDS_P1;SDS_P2;PMS_P1;PMS_P2;Temp;Humidity;BMP_temperature;BMP_pressure;BME280_temperature;BME280_humidity;BME280_pressure;Samples;Min_cycle;Max_cycle;Signal;HPM_P1;HPM_P2
2023/08/12 00:00:29;;;;;;;4.28;2.70;;;20.20;99.90;;;;;;5067288;28;20057;-56
2023/08/12 00:02:55;;;;;;;7.07;3.00;;;20.10;99.90;;;;;;5070493;28;20056;-58
2023/08/12 00:05:21;;;;;;;5.22;2.90;;;20.10;99.90;;;;;;5075083;28;20063;-58
2023/08/12 00:07:51;;;;;;;4.88;2.60;;;20.10;99.90;;;;;;5072223;28;20127;-57
2023/08/12 00:10:17;;;;;;;6.50;2.85;;;20.10;99.90;;;;;;5065232;28;20103;-56
2023/08/12 00:12:43;;;;;;;4.30;2.05;;;20.10;99.90;;;;;;5072305;28;20143;-61
2023/08/12 00:15:10;;;;;;;6.03;2.08;;;20.10;99.90;;;;;;5065960;28;20048;-57
2023/08/12 00:17:37;;;;;;;2.78;2.40;;;20.10;99.90;;;;;;5076367;28;20102;-55
2023/08/12 00:20:08;;;;;;;9.10;4.03;;;20.00;99.90;;;;;;5052097;28;20052;-56
2023/08/12 00:22:34;;;;;;;4.40;2.15;;;20.00;99.90;;;;;;5040428;28;20118;-58
2023/08/12 00:25:00;;;;;;;4.90;2.60;;;20.00;99.90;;;;;;5049068;28;20494;-62
2023/08/12 00:27:26;;;;;;;2.92;2.13;;;19.90;99.90;;;;;;5073807;28;20067;-56
2023/08/12 00:29:51;;;;;;;3.28;2.22;;;19.90;99.90;;;;;;5051829;28;20108;-55
2023/08/12 00:32:17;;;;;;;4.22;2.72;;;19.90;99.90;;;;;;5069734;28;21512;-57
2023/08/12 00:34:43;;;;;;;3.10;2.20;;;19.90;99.90;;;;;;5076930;28;20052;-56
2023/08/12 00:37:08;;;;;;;6.30;2.42;;;19.80;99.90;;;;;;5071673;28;20151;-58
2023/08/12 00:39:34;;;;;;;2.50;1.90;;;19.80;99.90;;;;;;5070084;28;20056;-56
2023/08/12 00:42:00;;;;;;;3.03;2.30;;;19.80;99.90;;;;;;5048072;28;20064;-57
2023/08/12 00:44:25;;;;;;;2.38;2.15;;;19.70;99.90;;;;;;5059183;28;20540;-57
2023/08/12 00:46:52;;;;;;;3.33;2.58;;;19.70;99.90;;;;;;5058418;28;20053;-57
2023/08/12 00:49:18;;;;;;;5.43;2.35;;;19.70;99.90;;;;;;5060814;28;20139;-56
2023/08/12 00:51:45;;;;;;;3.53;1.95;;;19.60;99.90;;;;;;5059136;28;20061;-57
2023/08/12 00:54:14;;;;;;;3.53;2.33;;;19.30;99.90;;;;;;5063745;28;20057;-56
2023/08/12 00:56:41;;;;;;;2.72;2.50;;;19.60;99.90;;;;;;5072498;28;20065;-58
2023/08/12 00:59:08;;;;;;;4.97;2.70;;;19.60;99.90;;;;;;5069862;28;20064;-56
2023/08/12 01:01:35;;;;;;;2.65;2.17;;;19.60;99.90;;;;;;5055047;28;20045;-56
2023/08/12 01:04:01;;;;;;;4.22;3.00;;;19.60;99.90;;;;;;5039059;28;20135;-57
2023/08/12 01:06:27;;;;;;;5.05;3.47;;;19.50;99.90;;;;;;5055964;28;20052;-56
2023/08/12 01:08:53;;;;;;;4.32;2.65;;;19.50;99.90;;;;;;5067388;28;20060;-57
2023/08/12 01:11:30;;;;;;;7.60;2.97;;;19.50;99.90;;;;;;5063033;28;20498;-55
2023/08/12 01:13:58;;;;;;;5.47;3.08;;;19.50;99.90;;;;;;5058121;28;20048;-56
2023/08/12 01:16:28;;;;;;;5.93;2.85;;;19.40;99.90;;;;;;5063867;28;20121;-56
2023/08/12 01:18:55;;;;;;;7.38;2.90;;;19.40;99.90;;;;;;5030235;28;20713;-57
2023/08/12 01:21:24;;;;;;;5.93;2.97;;;19.40;99.90;;;;;;5047214;28;20049;-58
2023/08/12 01:23:52;;;;;;;5.20;2.80;;;19.40;99.90;;;;;;5057717;28;20064;-57
2023/08/12 01:26:17;;;;;;;7.47;3.97;;;19.30;99.90;;;;;;5062046;28;20465;-56
2023/08/12 01:28:43;;;;;;;6.32;3.35;;;19.30;99.90;;;;;;5048164;28;20856;-56
2023/08/12 01:31:21;;;;;;;5.57;2.42;;;19.30;99.90;;;;;;5055074;28;20486;-57
2023/08/12 01:33:51;;;;;;;3.50;2.60;;;19.30;99.90;;;;;;5060340;28;20052;-63
2023/08/12 01:36:19;;;;;;;4.32;2.33;;;19.30;99.90;;;;;;5062492;28;20067;-56
2023/08/12 01:38:47;;;;;;;3.22;2.92;;;19.30;99.90;;;;;;5060902;28;20052;-56
2023/08/12 01:41:13;;;;;;;4.43;2.92;;;19.20;99.90;;;;;;5056395;28;20198;-56
2023/08/12 01:43:41;;;;;;;5.53;2.63;;;19.20;99.90;;;;;;5062045;28;21648;-57
2023/08/12 01:46:07;;;;;;;4.32;3.15;;;19.10;99.90;;;;;;5057489;28;20069;-59
2023/08/12 01:48:33;;;;;;;3.92;2.78;;;19.10;99.90;;;;;;5062054;28;20057;-56
2023/08/12 01:50:58;;;;;;;5.03;2.60;;;19.10;99.90;;;;;;5059558;28;20049;-58
2023/08/12 01:53:24;;;;;;;4.32;3.00;;;19.10;99.90;;;;;;5060181;28;20139;-61
2023/08/12 01:55:52;;;;;;;5.22;3.67;;;19.10;99.90;;;;;;5063096;28;20573;-60
2023/08/12 01:58:18;;;;;;;5.10;3.40;;;19.00;99.90;;;;;;5056285;28;20053;-55
2023/08/12 02:00:44;;;;;;;5.22;4.05;;;19.00;99.90;;;;;;5033722;28;20049;-57
2023/08/12 02:03:09;;;;;;;3.85;2.97;;;19.00;99.90;;;;;;5054668;28;20072;-57
2023/08/12 02:05:37;;;;;;;5.38;3.08;;;19.00;99.90;;;;;;5061021;28;20160;-55
2023/08/12 02:08:04;;;;;;;4.63;2.70;;;19.00;99.90;;;;;;5057819;28;20063;-56
2023/08/12 02:10:29;;;;;;;5.45;3.13;;;18.90;99.90;;;;;;5061625;28;20163;-61
2023/08/12 02:12:55;;;;;;;5.43;4.03;;;18.90;99.90;;;;;;5057409;28;20143;-56
2023/08/12 02:15:21;;;;;;;5.28;3.63;;;18.90;99.90;;;;;;5050406;28;20171;-56
2023/08/12 02:17:47;;;;;;;4.53;3.63;;;18.90;99.90;;;;;;5062397;28;20524;-57
2023/08/12 02:20:12;;;;;;;3.95;3.53;;;18.90;99.90;;;;;;5056362;28;20055;-57
2023/08/12 02:22:38;;;;;;;6.22;3.47;;;18.80;99.90;;;;;;5059980;28;20690;-57
2023/08/12 02:25:04;;;;;;;3.97;3.33;;;18.90;99.90;;;;;;5055172;28;20840;-57
2023/08/12 02:27:33;;;;;;;5.28;3.47;;;18.90;99.90;;;;;;5059902;28;20056;-56
2023/08/12 02:29:58;;;;;;;7.40;4.17;;;18.90;99.90;;;;;;5027117;28;1101706;-56
2023/08/12 02:32:24;;;;;;;6.80;3.47;;;18.90;99.90;;;;;;5056044;28;20068;-56
2023/08/12 02:34:51;;;;;;;4.47;3.28;;;18.90;99.90;;;;;;5060862;28;20056;-56
2023/08/12 02:37:17;;;;;;;5.65;3.80;;;18.90;99.90;;;;;;5058250;28;20052;-56
2023/08/12 02:39:43;;;;;;;4.40;3.38;;;18.80;99.90;;;;;;5059385;28;20117;-56
2023/08/12 02:42:08;;;;;;;5.35;3.60;;;18.90;99.90;;;;;;5052247;28;20057;-56
2023/08/12 02:44:34;;;;;;;4.93;3.58;;;18.90;99.90;;;;;;5057132;28;20079;-58
2023/08/12 02:46:59;;;;;;;5.55;3.95;;;18.90;99.90;;;;;;5058089;28;20052;-56
2023/08/12 02:49:25;;;;;;;4.95;3.50;;;19.00;99.90;;;;;;5057114;28;20052;-56
2023/08/12 02:51:51;;;;;;;4.03;3.15;;;19.00;99.90;;;;;;5059526;28;20716;-57
2023/08/12 02:54:17;;;;;;;7.28;3.90;;;19.00;99.90;;;;;;5056102;28;20060;-57
2023/08/12 02:56:43;;;;;;;5.43;3.95;;;19.00;99.90;;;;;;5056490;28;20145;-58
2023/08/12 02:59:09;;;;;;;4.82;3.58;;;19.00;99.90;;;;;;5058570;28;20067;-56
2023/08/12 03:01:34;;;;;;;7.53;4.72;;;19.00;99.90;;;;;;5041311;28;20052;-56
2023/08/12 03:04:00;;;;;;;6.55;4.00;;;19.00;99.90;;;;;;5057717;28;20071;-56
2023/08/12 03:06:26;;;;;;;8.40;4.18;;;19.00;99.90;;;;;;5059937;28;20063;-56
2023/08/12 03:08:51;;;;;;;8.27;4.68;;;19.00;99.90;;;;;;5047691;28;20512;-55
2023/08/12 03:11:18;;;;;;;8.50;4.65;;;19.10;99.90;;;;;;5055435;28;20052;-56
2023/08/12 03:13:44;;;;;;;6.00;3.72;;;19.00;99.90;;;;;;5056451;28;20502;-56
2023/08/12 03:16:14;;;;;;;8.15;5.22;;;19.10;99.90;;;;;;5058302;28;20064;-56
2023/08/12 03:18:40;;;;;;;5.80;4.55;;;19.00;99.90;;;;;;5037410;28;20106;-56
2023/08/12 03:21:07;;;;;;;6.18;4.05;;;19.10;99.90;;;;;;5056782;28;20052;-56
2023/08/12 03:23:33;;;;;;;7.43;4.00;;;19.00;99.90;;;;;;5055006;28;20071;-58
2023/08/12 03:25:59;;;;;;;5.70;3.97;;;19.00;99.90;;;;;;5057364;28;20056;-57
2023/08/12 03:28:24;;;;;;;7.35;4.65;;;19.00;99.90;;;;;;5060227;28;20052;-57
2023/08/12 03:30:53;;;;;;;6.45;4.63;;;19.00;99.90;;;;;;5056811;28;20529;-57
2023/08/12 03:33:19;;;;;;;6.00;4.70;;;19.00;99.90;;;;;;5036875;28;20049;-57
2023/08/12 03:35:46;;;;;;;7.95;4.65;;;19.00;99.90;;;;;;5046881;28;20049;-58
2023/08/12 03:38:12;;;;;;;9.38;5.05;;;19.00;99.90;;;;;;5054026;28;20188;-57
2023/08/12 03:40:38;;;;;;;7.20;5.50;;;19.00;99.90;;;;;;5058936;28;20630;-56
2023/08/12 03:43:04;;;;;;;10.63;6.10;;;19.00;99.90;;;;;;5052893;28;20117;-58
2023/08/12 03:45:30;;;;;;;6.57;4.65;;;18.90;99.90;;;;;;5061708;28;20057;-58
2023/08/12 03:47:56;;;;;;;8.27;5.25;;;18.90;99.90;;;;;;5033794;28;20510;-56
2023/08/12 03:50:21;;;;;;;5.30;4.43;;;18.90;99.90;;;;;;5057162;28;20101;-58
2023/08/12 03:52:47;;;;;;;7.05;5.63;;;18.90;99.90;;;;;;5054977;28;20383;-57
2023/08/12 03:55:13;;;;;;;5.70;4.63;;;18.90;99.90;;;;;;5055819;28;20063;-58
2023/08/12 03:57:39;;;;;;;6.63;5.72;;;18.90;99.90;;;;;;5058717;28;20163;-57
2023/08/12 04:00:07;;;;;;;10.48;5.93;;;18.80;99.90;;;;;;5054842;28;20052;-61
2023/08/12 04:02:32;;;;;;;6.50;5.20;;;18.90;99.90;;;;;;5056312;28;20066;-57
2023/08/12 04:04:58;;;;;;;7.40;5.57;;;18.90;99.90;;;;;;5056322;28;20113;-57
2023/08/12 04:07:24;;;;;;;7.72;5.30;;;18.90;99.90;;;;;;5043295;28;20080;-61
2023/08/12 04:09:53;;;;;;;7.93;5.45;;;18.90;99.90;;;;;;5054848;28;20544;-61
2023/08/12 04:12:18;;;;;;;7.30;5.30;;;18.80;99.90;;;;;;5059269;28;20056;-59
2023/08/12 04:14:44;;;;;;;8.77;5.78;;;18.80;99.90;;;;;;5062695;28;20056;-60
2023/08/12 04:17:10;;;;;;;6.93;6.00;;;18.90;99.90;;;;;;5032716;28;20780;-57
2023/08/12 04:19:35;;;;;;;10.68;5.70;;;18.90;99.90;;;;;;5054933;28;20084;-57
2023/08/12 04:22:01;;;;;;;12.90;6.00;;;18.90;99.90;;;;;;5060230;28;20060;-57
2023/08/12 04:24:27;;;;;;;7.35;6.32;;;18.90;99.90;;;;;;5068203;28;20143;-62
2023/08/12 04:26:52;;;;;;;11.30;7.97;;;18.80;99.90;;;;;;5041075;28;20555;-55
2023/08/12 04:29:18;;;;;;;10.40;7.53;;;18.90;99.90;;;;;;5064503;28;20060;-61
2023/08/12 04:31:44;;;;;;;9.70;6.65;;;18.90;99.90;;;;;;5046676;28;20444;-56
2023/08/12 04:34:09;;;;;;;12.52;7.93;;;18.90;99.90;;;;;;5040909;28;20528;-61
2023/08/12 04:36:35;;;;;;;9.13;6.97;;;18.90;99.90;;;;;;5060919;28;20067;-56
2023/08/12 04:39:01;;;;;;;11.07;6.60;;;18.90;99.90;;;;;;5041812;28;20067;-57
2023/08/12 04:41:26;;;;;;;11.25;6.72;;;18.90;99.90;;;;;;5043499;28;20061;-55
2023/08/12 04:43:52;;;;;;;9.95;7.78;;;19.00;99.90;;;;;;5058376;28;20056;-56
2023/08/12 04:46:18;;;;;;;14.32;7.85;;;19.00;99.90;;;;;;5062427;28;20993;-55
2023/08/12 04:48:43;;;;;;;13.80;7.70;;;19.00;99.90;;;;;;5062101;28;20064;-57
2023/08/12 04:51:10;;;;;;;9.30;7.25;;;19.00;99.90;;;;;;5042015;28;20074;-56
2023/08/12 04:53:35;;;;;;;12.32;8.25;;;19.10;99.90;;;;;;5064031;28;20053;-56
2023/08/12 04:56:01;;;;;;;11.50;8.05;;;19.00;99.90;;;;;;5059755;28;20399;-55
2023/08/12 04:58:27;;;;;;;10.48;6.45;;;19.00;99.90;;;;;;5041210;28;20056;-55
2023/08/12 05:00:53;;;;;;;12.55;8.25;;;19.10;99.90;;;;;;5055200;28;20065;-55
2023/08/12 05:03:18;;;;;;;11.82;8.70;;;19.10;99.90;;;;;;5059724;28;20063;-56
2023/08/12 05:05:52;;;;;;;9.48;7.47;;;19.10;99.90;;;;;;5038117;28;20063;-55
2023/08/12 05:08:18;;;;;;;12.30;7.47;;;19.20;99.90;;;;;;5061913;28;20063;-56
2023/08/12 05:10:44;;;;;;;15.85;7.90;;;19.20;99.90;;;;;;5045317;28;20564;-56
2023/08/12 05:13:09;;;;;;;11.02;7.88;;;19.20;99.90;;;;;;5060223;28;20064;-56
2023/08/12 05:15:36;;;;;;;9.07;7.53;;;19.30;99.90;;;;;;5064119;28;20048;-56
2023/08/12 05:18:03;;;;;;;12.43;7.15;;;19.30;99.90;;;;;;5053177;28;20130;-56
2023/08/12 05:20:28;;;;;;;14.25;7.88;;;19.40;99.90;;;;;;5037214;28;20490;-58
2023/08/12 05:22:54;;;;;;;11.75;8.15;;;19.40;99.90;;;;;;5057879;28;20053;-55
2023/08/12 05:25:19;;;;;;;13.32;8.23;;;19.50;99.90;;;;;;5061403;28;20140;-56
2023/08/12 05:27:45;;;;;;;12.77;8.10;;;19.50;99.90;;;;;;5033621;28;20123;-55
2023/08/12 05:30:11;;;;;;;12.65;8.60;;;19.60;99.90;;;;;;5036837;28;20052;-57
2023/08/12 05:32:37;;;;;;;10.85;7.93;;;19.80;99.90;;;;;;5063495;28;20059;-59
2023/08/12 05:35:03;;;;;;;11.80;8.15;;;19.90;99.90;;;;;;5049570;28;20057;-57
2023/08/12 05:37:29;;;;;;;9.57;7.50;;;20.10;99.90;;;;;;5064190;28;20510;-56
2023/08/12 05:39:54;;;;;;;9.98;6.97;;;20.20;99.90;;;;;;5061781;28;20056;-56
2023/08/12 05:42:20;;;;;;;10.45;8.10;;;20.40;99.90;;;;;;5057508;28;20057;-55
2023/08/12 05:44:46;;;;;;;9.23;7.40;;;20.50;99.90;;;;;;5059884;28;20781;-56
2023/08/12 05:47:11;;;;;;;11.40;7.65;;;20.60;99.90;;;;;;5057329;28;20064;-56
2023/08/12 05:49:37;;;;;;;12.93;7.78;;;20.60;99.90;;;;;;5060129;28;20568;-55
2023/08/12 05:52:03;;;;;;;10.18;7.65;;;20.80;99.90;;;;;;5056489;28;21078;-55
2023/08/12 05:54:29;;;;;;;11.15;7.78;;;20.90;99.90;;;;;;5058782;28;20052;-57
2023/08/12 05:56:54;;;;;;;12.43;8.05;;;20.90;99.90;;;;;;5059457;28;20081;-57
2023/08/12 05:59:20;;;;;;;11.80;8.30;;;21.00;99.90;;;;;;5056285;28;20136;-57
2023/08/12 06:01:46;;;;;;;7.82;6.50;;;21.10;99.90;;;;;;5061405;28;20609;-57
2023/08/12 06:04:11;;;;;;;11.38;7.70;;;21.10;99.90;;;;;;5054269;28;20168;-57
2023/08/12 06:06:37;;;;;;;10.95;8.13;;;21.20;99.90;;;;;;5061303;28;20055;-57
2023/08/12 06:09:03;;;;;;;10.30;7.63;;;21.30;99.90;;;;;;5058997;28;20080;-58
2023/08/12 06:11:29;;;;;;;13.10;8.43;;;21.40;99.90;;;;;;5043812;28;20079;-58
2023/08/12 06:13:54;;;;;;;10.55;7.60;;;21.40;99.90;;;;;;5053050;28;20048;-57
2023/08/12 06:16:20;;;;;;;12.27;7.40;;;21.50;99.90;;;;;;5058728;28;20115;-58
2023/08/12 06:18:46;;;;;;;11.70;8.25;;;21.50;99.90;;;;;;5059083;28;20104;-58
2023/08/12 06:21:11;;;;;;;13.43;7.95;;;21.60;99.90;;;;;;5056883;28;20501;-57
2023/08/12 06:23:37;;;;;;;8.95;7.07;;;21.60;99.90;;;;;;5045551;28;20147;-57
2023/08/12 06:26:03;;;;;;;14.13;8.15;;;21.70;99.90;;;;;;5054684;28;20060;-58
2023/08/12 06:28:28;;;;;;;10.15;7.90;;;21.70;99.90;;;;;;5007066;28;20067;-57
2023/08/12 06:30:54;;;;;;;12.35;8.23;;;21.70;99.90;;;;;;5047880;28;20075;-56
2023/08/12 06:33:20;;;;;;;10.30;7.28;;;21.70;99.90;;;;;;5059452;28;20792;-58
2023/08/12 06:35:46;;;;;;;10.18;7.82;;;21.60;99.90;;;;;;5059456;28;20048;-59
2023/08/12 06:38:13;;;;;;;13.07;7.95;;;21.60;99.90;;;;;;5041833;28;20061;-59
2023/08/12 06:40:39;;;;;;;13.18;8.73;;;21.60;99.90;;;;;;5061632;28;20057;-58
2023/08/12 06:43:04;;;;;;;10.55;8.05;;;21.60;99.90;;;;;;5053606;28;20058;-58
2023/08/12 06:45:30;;;;;;;12.23;7.88;;;21.50;99.90;;;;;;5059187;28;20052;-58
2023/08/12 06:47:56;;;;;;;13.18;10.00;;;21.60;99.90;;;;;;5058211;28;20724;-59
2023/08/12 06:51:31;;;;;;;12.07;7.93;;;21.60;99.90;;;;;;5102006;27;20451;-57
2023/08/12 06:53:57;;;;;;;10.75;8.27;;;21.80;99.90;;;;;;5117373;28;20255;-56
2023/08/12 06:56:23;;;;;;;13.45;8.73;;;21.90;99.90;;;;;;5114303;28;20063;-58
2023/08/12 06:58:48;;;;;;;10.65;7.82;;;22.00;99.90;;;;;;5117152;28;20051;-56
2023/08/12 07:01:14;;;;;;;9.23;7.35;;;22.10;99.90;;;;;;5123850;27;20211;-55
2023/08/12 07:03:40;;;;;;;12.23;8.43;;;22.20;99.90;;;;;;5130909;27;20523;-55
2023/08/12 07:06:05;;;;;;;10.65;7.85;;;22.30;99.90;;;;;;5118209;27;20039;-56
2023/08/12 07:08:32;;;;;;;14.75;8.85;;;22.20;99.90;;;;;;5126796;27;20497;-56
2023/08/12 07:10:57;;;;;;;10.02;7.43;;;22.20;99.90;;;;;;5122369;27;20063;-57
2023/08/12 07:13:23;;;;;;;9.63;7.75;;;22.30;99.90;;;;;;5125198;27;20175;-56
2023/08/12 07:15:49;;;;;;;12.85;7.90;;;22.30;99.90;;;;;;5120886;27;20063;-56
2023/08/12 07:18:15;;;;;;;11.13;8.32;;;22.30;99.90;;;;;;5125058;27;20086;-56
2023/08/12 07:20:41;;;;;;;11.55;8.50;;;22.30;99.90;;;;;;5125094;27;20066;-57
2023/08/12 07:23:06;;;;;;;11.25;8.98;;;22.20;99.90;;;;;;5105216;28;20048;-57
2023/08/12 07:25:32;;;;;;;13.88;8.63;;;22.20;99.90;;;;;;5109190;28;20766;-56
2023/08/12 07:28:02;;;;;;;10.88;8.10;;;22.00;99.90;;;;;;5090672;28;20064;-56
2023/08/12 07:30:28;;;;;;;10.60;8.13;;;22.10;99.90;;;;;;5086563;28;20067;-56
2023/08/12 07:32:53;;;;;;;17.10;9.77;;;22.10;99.90;;;;;;5102116;28;20056;-56
2023/08/12 07:35:19;;;;;;;10.80;8.73;;;22.00;99.90;;;;;;5103297;27;20065;-56
2023/08/12 07:37:45;;;;;;;13.52;8.35;;;22.00;99.90;;;;;;5083442;28;20446;-56
2023/08/12 07:40:12;;;;;;;10.75;8.27;;;22.00;99.90;;;;;;5097615;27;20047;-59
2023/08/12 07:42:38;;;;;;;11.93;8.02;;;21.90;99.90;;;;;;5106623;28;20114;-65
2023/08/12 07:45:05;;;;;;;10.48;8.13;;;22.00;99.90;;;;;;5113507;28;20055;-60
2023/08/12 07:47:30;;;;;;;14.57;9.43;;;22.10;99.90;;;;;;5083569;28;20086;-59
2023/08/12 07:49:56;;;;;;;15.48;10.27;;;22.10;99.90;;;;;;5074920;28;20518;-62
2023/08/12 07:52:22;;;;;;;14.63;9.95;;;22.00;99.90;;;;;;5093501;28;20460;-56
2023/08/12 07:54:47;;;;;;;14.38;9.80;;;22.20;99.90;;;;;;5098663;28;20140;-62
2023/08/12 07:57:13;;;;;;;16.27;9.93;;;22.10;99.90;;;;;;5088659;28;20059;-57
2023/08/12 07:59:39;;;;;;;12.95;9.65;;;22.30;99.90;;;;;;5103732;27;20134;-60
2023/08/12 08:02:05;;;;;;;15.43;9.25;;;22.30;99.90;;;;;;5098217;28;20504;-60
2023/08/12 08:04:31;;;;;;;12.13;9.98;;;22.20;99.90;;;;;;5090769;28;20068;-59
2023/08/12 08:06:56;;;;;;;13.63;10.10;;;22.20;99.90;;;;;;5092269;28;20051;-58
2023/08/12 08:09:22;;;;;;;13.35;10.15;;;22.30;99.90;;;;;;5092206;28;20563;-56
2023/08/12 08:11:48;;;;;;;11.38;9.75;;;22.30;99.90;;;;;;5095385;28;20090;-66
2023/08/12 08:14:13;;;;;;;13.60;9.68;;;22.40;99.90;;;;;;5080695;28;20054;-65
2023/08/12 08:16:41;;;;;;;15.13;10.25;;;22.50;99.90;;;;;;5088419;28;20060;-65
2023/08/12 08:19:09;;;;;;;13.07;9.57;;;22.70;99.90;;;;;;5091806;28;20048;-55
2023/08/12 08:21:36;;;;;;;13.77;10.82;;;22.60;99.90;;;;;;5092188;28;20055;-60
2023/08/12 08:24:02;;;;;;;12.43;10.50;;;22.70;99.90;;;;;;5091690;28;20125;-57
2023/08/12 08:26:28;;;;;;;13.32;10.30;;;22.70;99.90;;;;;;5076838;28;20055;-58
2023/08/12 08:28:53;;;;;;;12.85;10.95;;;22.80;99.90;;;;;;5093907;28;20051;-58
2023/08/12 08:31:19;;;;;;;14.52;10.75;;;22.80;99.90;;;;;;5088690;28;20061;-57
2023/08/12 08:33:45;;;;;;;19.50;11.98;;;22.70;99.90;;;;;;5091194;28;20052;-56
2023/08/12 08:36:10;;;;;;;12.65;11.07;;;22.80;99.90;;;;;;5087430;28;20106;-56
2023/08/12 08:38:36;;;;;;;16.33;11.20;;;22.80;99.90;;;;;;5093076;28;20844;-58
2023/08/12 08:41:05;;;;;;;18.13;11.55;;;22.80;99.90;;;;;;5092622;28;20047;-57
2023/08/12 08:43:32;;;;;;;13.60;11.98;;;22.90;99.90;;;;;;5088556;28;20052;-60
2023/08/12 08:46:02;;;;;;;15.48;12.00;;;23.00;99.90;;;;;;5086443;28;20560;-65
2023/08/12 08:48:28;;;;;;;19.45;13.82;;;23.10;99.90;;;;;;5090696;28;20051;-61
2023/08/12 08:50:54;;;;;;;18.48;13.32;;;23.00;99.90;;;;;;5091515;28;20079;-57
2023/08/12 08:53:20;;;;;;;13.63;11.85;;;22.90;99.90;;;;;;5089026;28;20063;-58
2023/08/12 08:55:46;;;;;;;14.32;11.93;;;22.70;99.90;;;;;;5084529;28;20070;-57
2023/08/12 08:58:12;;;;;;;18.88;12.35;;;22.80;99.90;;;;;;5089078;28;20110;-56
2023/08/12 09:00:38;;;;;;;14.88;12.48;;;22.80;99.90;;;;;;5089802;28;20417;-56
2023/08/12 09:03:06;;;;;;;16.23;11.73;;;22.80;99.90;;;;;;5082348;28;20081;-61
2023/08/12 09:05:33;;;;;;;15.93;11.80;;;22.80;99.90;;;;;;5082273;28;20054;-63
2023/08/12 09:08:06;;;;;;;13.35;10.13;;;22.80;99.90;;;;;;5081877;28;20127;-60
2023/08/12 09:10:32;;;;;;;14.40;11.27;;;22.70;99.90;;;;;;5095195;28;20059;-63
2023/08/12 09:13:03;;;;;;;13.77;12.05;;;22.50;99.90;;;;;;5066935;28;20576;-62
2023/08/12 09:15:28;;;;;;;18.23;11.38;;;22.50;99.90;;;;;;5067261;28;20055;-56
2023/08/12 09:17:54;;;;;;;17.33;11.68;;;22.50;99.90;;;;;;5086990;28;20056;-65
2023/08/12 09:20:20;;;;;;;13.98;10.63;;;22.40;99.90;;;;;;5080448;28;20064;-55
2023/08/12 09:22:54;;;;;;;16.15;10.77;;;22.30;99.90;;;;;;5093196;28;20048;-58
2023/08/12 09:25:20;;;;;;;14.57;11.13;;;22.30;99.90;;;;;;5088464;28;20071;-56
2023/08/12 09:27:46;;;;;;;13.07;11.23;;;22.10;99.90;;;;;;5084617;28;20612;-55
2023/08/12 09:30:13;;;;;;;11.13;9.75;;;22.10;99.90;;;;;;5084811;28;20175;-56
2023/08/12 09:32:38;;;;;;;12.60;9.88;;;22.10;99.90;;;;;;5078648;28;20056;-56
2023/08/12 09:35:05;;;;;;;12.43;10.23;;;22.10;99.90;;;;;;5085166;28;20053;-56
2023/08/12 09:37:31;;;;;;;11.07;9.45;;;22.00;99.90;;;;;;5084959;28;20063;-56
2023/08/12 09:39:58;;;;;;;14.05;10.40;;;21.90;99.90;;;;;;5081727;28;20117;-60
2023/08/12 09:42:28;;;;;;;9.55;8.63;;;22.00;99.90;;;;;;5085066;28;20086;-56
2023/08/12 09:44:54;;;;;;;12.40;10.65;;;21.90;99.90;;;;;;5080997;28;20639;-57
2023/08/12 09:47:19;;;;;;;11.68;10.50;;;21.70;99.90;;;;;;5065951;28;20061;-56
2023/08/12 09:49:45;;;;;;;14.80;10.77;;;21.60;99.90;;;;;;5081283;28;20056;-55
2023/08/12 09:52:11;;;;;;;17.00;10.95;;;21.60;99.90;;;;;;5079332;28;20056;-55
2023/08/12 09:54:38;;;;;;;15.80;10.15;;;21.50;99.90;;;;;;5085640;28;20059;-57
2023/08/12 09:57:08;;;;;;;14.95;10.93;;;21.60;99.90;;;;;;5088443;28;20053;-55
2023/08/12 09:59:35;;;;;;;13.02;9.88;;;21.60;99.90;;;;;;5088330;28;20055;-59
2023/08/12 10:02:04;;;;;;;15.65;11.35;;;21.50;99.90;;;;;;5085560;28;20044;-57
2023/08/12 10:04:38;;;;;;;13.27;10.98;;;21.50;99.90;;;;;;5088836;28;20154;-58
2023/08/12 10:07:04;;;;;;;15.43;11.63;;;21.50;99.90;;;;;;5085798;28;20079;-56
2023/08/12 10:09:32;;;;;;;11.75;10.55;;;21.60;99.90;;;;;;5074553;28;20116;-57
2023/08/12 10:14:24;;;;;;;11.20;10.02;;;21.60;99.90;;;;;;5079185;28;20052;-57
2023/08/12 10:16:50;;;;;;;11.52;10.15;;;21.50;99.90;;;;;;5089665;28;20052;-57
2023/08/12 10:19:17;;;;;;;12.35;8.07;;;21.50;99.90;;;;;;5080394;28;20044;-57
2023/08/12 10:21:44;;;;;;;9.45;8.50;;;21.50;99.90;;;;;;5092493;28;20082;-57
2023/08/12 10:24:11;;;;;;;10.77;8.18;;;21.40;99.90;;;;;;5089721;28;20051;-57
2023/08/12 10:26:38;;;;;;;8.25;7.10;;;21.30;99.90;;;;;;5089671;28;20064;-57
2023/08/12 10:29:04;;;;;;;6.93;5.88;;;21.30;99.90;;;;;;5080557;28;20101;-55
2023/08/12 10:31:30;;;;;;;6.03;5.45;;;21.30;99.90;;;;;;5087113;28;20060;-56
2023/08/12 10:33:57;;;;;;;6.93;5.45;;;21.30;99.90;;;;;;5073867;28;20112;-55
2023/08/12 10:36:27;;;;;;;6.78;5.35;;;21.30;99.90;;;;;;5077220;28;20060;-64
2023/08/12 10:38:53;;;;;;;6.65;4.90;;;21.30;99.90;;;;;;5081040;28;20581;-64
2023/08/12 10:41:23;;;;;;;7.53;5.32;;;21.50;99.90;;;;;;5073432;28;20056;-58
2023/08/12 10:44:03;;;;;;;5.60;4.70;;;21.80;99.90;;;;;;5080558;28;20071;-61
2023/08/12 10:46:37;;;;;;;4.63;4.15;;;21.80;99.90;;;;;;5072774;28;21225;-59
2023/08/12 10:49:05;;;;;;;4.70;4.30;;;21.80;99.90;;;;;;5088847;28;20774;-58
2023/08/12 10:51:52;;;;;;;5.78;3.80;;;22.10;99.90;;;;;;5083570;28;20064;-63
2023/08/12 10:54:22;;;;;;;3.53;3.20;;;22.20;99.90;;;;;;5075116;28;20054;-58
2023/08/12 10:57:05;;;;;;;3.97;3.40;;;22.30;99.90;;;;;;5088426;28;20052;-64
2023/08/12 10:59:46;;;;;;;3.40;2.90;;;22.30;99.90;;;;;;5108219;27;20409;-63
2023/08/12 11:02:36;;;;;;;4.88;2.88;;;22.40;99.90;;;;;;5106366;28;20389;-58
2023/08/12 11:05:11;;;;;;;3.08;2.40;;;22.40;99.90;;;;;;5087456;27;20052;-57
2023/08/12 11:07:44;;;;;;;4.82;2.90;;;22.50;99.90;;;;;;5094866;28;20146;-58
2023/08/12 11:10:22;;;;;;;4.22;2.25;;;22.50;99.90;;;;;;5083196;28;20556;-66
2023/08/12 11:12:56;;;;;;;7.10;2.47;;;22.50;99.90;;;;;;5099633;27;20516;-64
2023/08/12 11:15:46;;;;;;;4.07;2.30;;;22.60;99.90;;;;;;5038272;28;1119727;-64
2023/08/12 11:18:20;;;;;;;3.85;2.50;;;22.60;99.90;;;;;;5098159;28;20070;-60
2023/08/12 11:20:48;;;;;;;2.95;2.15;;;22.80;99.90;;;;;;5090474;28;20048;-62
2023/08/12 11:23:14;;;;;;;2.20;2.00;;;22.90;99.90;;;;;;5104608;27;20659;-59
2023/08/12 11:25:42;;;;;;;2.55;2.35;;;22.90;99.90;;;;;;5101147;28;20503;-58
2023/08/12 11:28:08;;;;;;;2.75;2.28;;;22.90;99.90;;;;;;5080929;27;20147;-60
2023/08/12 11:30:34;;;;;;;3.92;2.10;;;22.90;99.90;;;;;;5094651;27;20052;-58
2023/08/12 11:33:03;;;;;;;3.17;2.30;;;23.10;99.90;;;;;;5103551;27;20083;-59
2023/08/12 11:35:29;;;;;;;3.00;1.60;;;23.00;99.90;;;;;;5097950;27;20048;-66
2023/08/12 11:37:58;;;;;;;2.25;2.05;;;22.90;99.90;;;;;;5071845;28;20055;-58
2023/08/12 11:40:25;;;;;;;3.55;1.42;;;23.00;99.90;;;;;;5081597;27;20059;-58
2023/08/12 11:42:52;;;;;;;2.65;1.48;;;23.10;99.90;;;;;;5077937;27;20059;-62
2023/08/12 11:45:23;;;;;;;2.13;1.70;;;22.80;99.90;;;;;;5074186;27;20064;-67
2023/08/12 11:47:52;;;;;;;1.88;1.52;;;22.90;99.90;;;;;;5082056;28;20503;-60
2023/08/12 11:50:19;;;;;;;1.98;1.42;;;22.80;99.90;;;;;;5085116;27;20091;-59
2023/08/12 11:52:46;;;;;;;3.88;2.13;;;22.90;99.90;;;;;;5121804;27;20051;-58
2023/08/12 11:55:13;;;;;;;1.77;1.40;;;22.80;99.90;;;;;;5111972;27;20132;-57
2023/08/12 11:57:42;;;;;;;1.30;1.20;;;22.70;99.90;;;;;;5081837;27;20930;-57
2023/08/12 12:00:14;;;;;;;1.98;1.05;;;22.50;99.90;;;;;;5083113;28;20059;-58
2023/08/12 12:02:40;;;;;;;1.67;0.93;;;22.30;99.90;;;;;;5086501;28;20509;-58
2023/08/12 12:05:13;;;;;;;0.60;0.40;;;22.30;99.90;;;;;;5077472;28;20052;-58
2023/08/12 12:07:39;;;;;;;1.52;0.75;;;22.30;99.90;;;;;;5100256;28;20052;-59
2023/08/12 12:10:06;;;;;;;0.43;0.40;;;22.20;99.90;;;;;;5101487;28;20066;-57
2023/08/12 12:12:35;;;;;;;0.85;0.73;;;22.30;99.90;;;;;;5087486;28;20052;-64
2023/08/12 12:15:04;;;;;;;1.02;0.70;;;22.30;99.90;;;;;;5093210;28;20163;-57
2023/08/12 12:17:30;;;;;;;1.33;0.93;;;22.10;99.90;;;;;;5097082;27;20145;-57
2023/08/12 12:20:02;;;;;;;3.00;1.13;;;22.10;99.90;;;;;;5085464;28;20051;-57
2023/08/12 12:22:35;;;;;;;1.23;0.60;;;22.00;99.90;;;;;;5090101;28;20504;-58
2023/08/12 12:25:08;;;;;;;1.80;0.70;;;21.90;99.90;;;;;;5090160;27;20134;-57
2023/08/12 12:27:35;;;;;;;1.45;0.90;;;21.70;99.90;;;;;;5106240;27;20303;-58
2023/08/12 12:30:04;;;;;;;3.33;0.90;;;21.50;99.90;;;;;;5096363;27;20067;-58
2023/08/12 12:32:31;;;;;;;1.08;0.65;;;21.60;99.90;;;;;;5064214;28;20051;-58
2023/08/12 12:34:57;;;;;;;1.30;0.55;;;21.80;99.90;;;;;;5091918;28;20059;-59
2023/08/12 12:37:23;;;;;;;1.70;1.00;;;21.90;99.90;;;;;;5076606;28;20100;-58
2023/08/12 12:39:48;;;;;;;1.42;0.80;;;21.60;99.90;;;;;;5102383;28;20463;-59
2023/08/12 12:42:14;;;;;;;2.50;1.10;;;21.40;99.90;;;;;;5093358;28;20076;-58